Brownsville, WI (53006)

8:43 PM CDT on August 28, 2015 (GMT -0500)
Farmersville, WI | | Change Station
CLOSE
Current Station
Personal Weather Station
Location: Mayville, WI
Elevation: 961 ft
Nearby Weather Stations

Elev 961 ft 43.56 °N, 88.54 °W | Updated 11 seconds ago

Rain
Rain
61.2 °F
Feels Like 61.2 °F
N
0.0
Wind Variable Wind from SE
Gusts 0.0 mph

Today
High -- | Low -- °F
--% Chance of Precip.
Yesterday
High -- | Low -- °F
Precip. -- in
6:13 AM 7:36 PM
Waxing Gibbous, 99% visible
Pressure 30.09 in
Visibility 9.0 miles
Clouds Overcast 9000 ft
Dew Point 60 °F
Humidity 96%
Rainfall 0.20 in
Snow Depth Not available.
UV 0.0 out of 12
Pollen 3.70 out of 12
Air Quality Not available.
Flu Activity Not available.
METAR KFLD 290053Z AUTO 15007KT 9SM RA OVC090 17/15 A3009 RMK AO2 SLP189 P0006 T01720150
Pressure 30.09 in
Visibility 9.0 miles
Clouds Overcast 9000 ft
Dew Point 60 °F
Humidity 96%
Rainfall 0.20 in
Snow Depth Not available.
UV 0.0 out of 12
Pollen 3.70 out of 12
Air Quality Not available.
Flu Activity Not available.
METAR KFLD 290053Z AUTO 15007KT 9SM RA OVC090 17/15 A3009 RMK AO2 SLP189 P0006 T01720150

10-Day Weather Forecast

×

Almanac

Astronomy

Aug. 28, 2015 Rise Set
Actual Time
Civil Twilight
Nautical Twilight
Astronomical Twilight
Moon
Length of Visible Light
Length of Day
Tomorrow will be .
, % of the Moon is Illuminated

Today's Extremes

State Highs State Lows

Community

WunderPhotos

Upload Photos

1,850,566 photos uploaded!

WunderBlogs® & News

Nearby

Air Quality

  Air Quality AQ Index Pollutant
Not available.

Snow Depth

Station Depth Elevation

Earthquake Activity

City Distance Mag. Time & Date
Minimum magnitude displayed is 2.5.

Coastal Water Temperatures

Place Temperature

Stations

Nearby Weather Stations

Station Location Temp. Windchill Dew Point Humidity Wind Precip. Elev Updated Type